sensor_id;sensor_type;location;lat;lon;timestamp;temperature;humidity
12335;DHT22;6233;51.560;9.986;2022-10-19T00:01:19;10.50;99.90
12335;DHT22;6233;51.560;9.986;2022-10-19T00:04:21;10.10;99.90
12335;DHT22;6233;51.560;9.986;2022-10-19T00:07:22;10.00;99.90
12335;DHT22;6233;51.560;9.986;2022-10-19T00:10:24;10.10;99.90
12335;DHT22;6233;51.560;9.986;2022-10-19T00:13:26;10.00;99.90
12335;DHT22;6233;51.560;9.986;2022-10-19T00:16:29;9.90;99.90
12335;DHT22;6233;51.560;9.986;2022-10-19T00:19:31;9.80;99.90
12335;DHT22;6233;51.560;9.986;2022-10-19T00:22:33;9.80;99.90
12335;DHT22;6233;51.560;9.986;2022-10-19T00:25:35;10.10;99.90
12335;DHT22;6233;51.560;9.986;2022-10-19T00:28:39;9.70;99.90
12335;DHT22;6233;51.560;9.986;2022-10-19T00:31:41;9.70;99.90
12335;DHT22;6233;51.560;9.986;2022-10-19T00:34:43;9.90;99.90
12335;DHT22;6233;51.560;9.986;2022-10-19T00:37:44;9.70;99.90
12335;DHT22;6233;51.560;9.986;2022-10-19T00:40:47;9.80;99.90
12335;DHT22;6233;51.560;9.986;2022-10-19T00:43:56;9.70;99.90
12335;DHT22;6233;51.560;9.986;2022-10-19T00:47:00;9.70;99.90
12335;DHT22;6233;51.560;9.986;2022-10-19T00:50:04;9.60;99.90
12335;DHT22;6233;51.560;9.986;2022-10-19T00:53:06;9.60;99.90
12335;DHT22;6233;51.560;9.986;2022-10-19T00:56:12;10.00;99.90
12335;DHT22;6233;51.560;9.986;2022-10-19T00:59:18;9.50;99.90
12335;DHT22;6233;51.560;9.986;2022-10-19T01:02:20;9.60;99.90
12335;DHT22;6233;51.560;9.986;2022-10-19T01:05:22;9.80;99.90
12335;DHT22;6233;51.560;9.986;2022-10-19T01:08:24;9.40;99.90
12335;DHT22;6233;51.560;9.986;2022-10-19T01:17:57;9.40;99.90
12335;DHT22;6233;51.560;9.986;2022-10-19T01:21:20;9.30;99.90
12335;DHT22;6233;51.560;9.986;2022-10-19T01:27:43;9.30;99.90
12335;DHT22;6233;51.560;9.986;2022-10-19T01:34:14;9.30;99.90
12335;DHT22;6233;51.560;9.986;2022-10-19T01:40:40;9.20;99.90
12335;DHT22;6233;51.560;9.986;2022-10-19T01:47:17;9.10;99.90
12335;DHT22;6233;51.560;9.986;2022-10-19T01:50:29;9.10;99.90
12335;DHT22;6233;51.560;9.986;2022-10-19T01:53:36;9.00;99.90
12335;DHT22;6233;51.560;9.986;2022-10-19T01:56:41;9.10;99.90
12335;DHT22;6233;51.560;9.986;2022-10-19T01:59:44;9.10;99.90
12335;DHT22;6233;51.560;9.986;2022-10-19T02:02:48;9.20;99.90
12335;DHT22;6233;51.560;9.986;2022-10-19T02:05:52;9.20;99.90
12335;DHT22;6233;51.560;9.986;2022-10-19T02:08:54;9.10;99.90
12335;DHT22;6233;51.560;9.986;2022-10-19T02:11:59;9.20;99.90
12335;DHT22;6233;51.560;9.986;2022-10-19T02:15:10;9.30;99.90
12335;DHT22;6233;51.560;9.986;2022-10-19T02:18:17;9.40;99.90
12335;DHT22;6233;51.560;9.986;2022-10-19T02:21:20;9.30;99.90
12335;DHT22;6233;51.560;9.986;2022-10-19T02:24:22;9.40;99.90
12335;DHT22;6233;51.560;9.986;2022-10-19T02:27:23;9.70;99.90
12335;DHT22;6233;51.560;9.986;2022-10-19T02:30:25;9.50;99.90
12335;DHT22;6233;51.560;9.986;2022-10-19T02:33:28;9.40;99.90
12335;DHT22;6233;51.560;9.986;2022-10-19T02:36:29;9.30;99.90
12335;DHT22;6233;51.560;9.986;2022-10-19T02:39:32;9.30;99.90
12335;DHT22;6233;51.560;9.986;2022-10-19T02:42:51;9.90;99.90
12335;DHT22;6233;51.560;9.986;2022-10-19T02:46:12;9.40;99.90
12335;DHT22;6233;51.560;9.986;2022-10-19T02:49:15;9.20;99.90
12335;DHT22;6233;51.560;9.986;2022-10-19T02:52:16;9.10;99.90
12335;DHT22;6233;51.560;9.986;2022-10-19T02:55:18;9.10;99.90
12335;DHT22;6233;51.560;9.986;2022-10-19T02:58:20;9.10;99.90
12335;DHT22;6233;51.560;9.986;2022-10-19T03:01:21;9.10;99.90
12335;DHT22;6233;51.560;9.986;2022-10-19T03:04:23;9.40;99.90
12335;DHT22;6233;51.560;9.986;2022-10-19T03:07:25;9.10;99.90
12335;DHT22;6233;51.560;9.986;2022-10-19T03:10:27;9.10;99.90
12335;DHT22;6233;51.560;9.986;2022-10-19T03:13:29;9.20;99.90
12335;DHT22;6233;51.560;9.986;2022-10-19T03:16:30;9.30;99.90
12335;DHT22;6233;51.560;9.986;2022-10-19T03:19:33;9.20;99.90
12335;DHT22;6233;51.560;9.986;2022-10-19T03:22:35;9.20;99.90
12335;DHT22;6233;51.560;9.986;2022-10-19T03:25:37;9.10;99.90
12335;DHT22;6233;51.560;9.986;2022-10-19T03:28:39;9.10;99.90
12335;DHT22;6233;51.560;9.986;2022-10-19T03:31:41;9.20;99.90
12335;DHT22;6233;51.560;9.986;2022-10-19T03:34:43;9.00;99.90
12335;DHT22;6233;51.560;9.986;2022-10-19T03:37:44;9.00;99.90
12335;DHT22;6233;51.560;9.986;2022-10-19T03:40:46;9.00;99.90
12335;DHT22;6233;51.560;9.986;2022-10-19T03:43:48;9.50;99.90
12335;DHT22;6233;51.560;9.986;2022-10-19T03:46:50;9.00;99.90
12335;DHT22;6233;51.560;9.986;2022-10-19T03:49:51;9.00;99.90
12335;DHT22;6233;51.560;9.986;2022-10-19T03:52:54;9.00;99.90
12335;DHT22;6233;51.560;9.986;2022-10-19T03:56:07;8.90;99.90
12335;DHT22;6233;51.560;9.986;2022-10-19T03:59:13;9.00;99.90
12335;DHT22;6233;51.560;9.986;2022-10-19T04:02:15;8.90;99.90
12335;DHT22;6233;51.560;9.986;2022-10-19T04:05:17;8.90;99.90
12335;DHT22;6233;51.560;9.986;2022-10-19T04:08:18;8.90;99.90
12335;DHT22;6233;51.560;9.986;2022-10-19T04:11:23;8.80;99.90
12335;DHT22;6233;51.560;9.986;2022-10-19T04:14:25;8.80;99.90
12335;DHT22;6233;51.560;9.986;2022-10-19T04:17:33;8.90;99.90
12335;DHT22;6233;51.560;9.986;2022-10-19T04:20:35;8.80;99.90
12335;DHT22;6233;51.560;9.986;2022-10-19T04:23:43;8.80;99.90
12335;DHT22;6233;51.560;9.986;2022-10-19T04:26:47;8.70;99.90
12335;DHT22;6233;51.560;9.986;2022-10-19T04:29:49;8.70;99.90
12335;DHT22;6233;51.560;9.986;2022-10-19T04:32:51;8.60;99.90
12335;DHT22;6233;51.560;9.986;2022-10-19T04:36:04;8.60;99.90
12335;DHT22;6233;51.560;9.986;2022-10-19T04:39:06;8.70;99.90
12335;DHT22;6233;51.560;9.986;2022-10-19T04:42:08;8.70;99.90
12335;DHT22;6233;51.560;9.986;2022-10-19T04:45:10;8.70;99.90
12335;DHT22;6233;51.560;9.986;2022-10-19T04:48:12;8.70;99.90
12335;DHT22;6233;51.560;9.986;2022-10-19T04:51:16;8.70;99.90
12335;DHT22;6233;51.560;9.986;2022-10-19T04:54:28;8.70;99.90
12335;DHT22;6233;51.560;9.986;2022-10-19T04:57:30;8.70;99.90
12335;DHT22;6233;51.560;9.986;2022-10-19T05:00:31;8.70;99.90
12335;DHT22;6233;51.560;9.986;2022-10-19T05:03:33;8.80;99.90
12335;DHT22;6233;51.560;9.986;2022-10-19T05:06:35;8.80;99.90
12335;DHT22;6233;51.560;9.986;2022-10-19T05:09:37;8.80;99.90
12335;DHT22;6233;51.560;9.986;2022-10-19T05:12:40;8.80;99.90
12335;DHT22;6233;51.560;9.986;2022-10-19T05:15:42;8.80;99.90
12335;DHT22;6233;51.560;9.986;2022-10-19T05:18:48;8.80;99.90
12335;DHT22;6233;51.560;9.986;2022-10-19T05:21:50;8.80;99.90
12335;DHT22;6233;51.560;9.986;2022-10-19T05:24:52;8.80;99.90
12335;DHT22;6233;51.560;9.986;2022-10-19T05:27:58;8.90;99.90
12335;DHT22;6233;51.560;9.986;2022-10-19T05:31:10;8.90;99.90
12335;DHT22;6233;51.560;9.986;2022-10-19T05:34:12;8.90;99.90
12335;DHT22;6233;51.560;9.986;2022-10-19T05:37:15;8.80;99.90
12335;DHT22;6233;51.560;9.986;2022-10-19T05:40:17;8.80;99.90
12335;DHT22;6233;51.560;9.986;2022-10-19T05:43:19;8.90;99.90
12335;DHT22;6233;51.560;9.986;2022-10-19T05:46:21;8.80;99.90
12335;DHT22;6233;51.560;9.986;2022-10-19T05:49:23;8.90;99.90
12335;DHT22;6233;51.560;9.986;2022-10-19T05:52:24;8.90;99.90
12335;DHT22;6233;51.560;9.986;2022-10-19T05:55:26;8.90;99.90
12335;DHT22;6233;51.560;9.986;2022-10-19T05:58:29;8.90;99.90
12335;DHT22;6233;51.560;9.986;2022-10-19T06:01:31;9.00;99.90
12335;DHT22;6233;51.560;9.986;2022-10-19T06:04:33;9.00;99.90
12335;DHT22;6233;51.560;9.986;2022-10-19T06:07:35;9.00;99.90
12335;DHT22;6233;51.560;9.986;2022-10-19T06:10:37;9.00;99.90
12335;DHT22;6233;51.560;9.986;2022-10-19T06:13:40;9.00;99.90
12335;DHT22;6233;51.560;9.986;2022-10-19T06:16:42;9.10;99.90
12335;DHT22;6233;51.560;9.986;2022-10-19T06:19:47;9.10;99.90
12335;DHT22;6233;51.560;9.986;2022-10-19T06:22:48;9.10;99.90
12335;DHT22;6233;51.560;9.986;2022-10-19T06:25:50;9.10;99.90
12335;DHT22;6233;51.560;9.986;2022-10-19T06:28:54;9.10;99.90
12335;DHT22;6233;51.560;9.986;2022-10-19T06:31:59;9.20;99.90
12335;DHT22;6233;51.560;9.986;2022-10-19T06:35:15;9.20;99.90
12335;DHT22;6233;51.560;9.986;2022-10-19T06:38:16;9.20;99.90
12335;DHT22;6233;51.560;9.986;2022-10-19T06:41:18;9.30;99.90
12335;DHT22;6233;51.560;9.986;2022-10-19T06:44:20;9.30;99.90
12335;DHT22;6233;51.560;9.986;2022-10-19T06:47:22;9.30;99.90
12335;DHT22;6233;51.560;9.986;2022-10-19T06:50:23;9.40;99.90
12335;DHT22;6233;51.560;9.986;2022-10-19T06:53:25;9.40;99.90
12335;DHT22;6233;51.560;9.986;2022-10-19T06:56:27;9.40;99.90
12335;DHT22;6233;51.560;9.986;2022-10-19T06:59:29;9.50;99.90
12335;DHT22;6233;51.560;9.986;2022-10-19T07:02:31;9.60;99.90
12335;DHT22;6233;51.560;9.986;2022-10-19T07:05:33;9.60;99.90
12335;DHT22;6233;51.560;9.986;2022-10-19T07:08:37;9.70;99.90
12335;DHT22;6233;51.560;9.986;2022-10-19T07:11:39;9.70;99.90
12335;DHT22;6233;51.560;9.986;2022-10-19T07:14:46;9.80;99.90
12335;DHT22;6233;51.560;9.986;2022-10-19T07:17:48;9.80;99.90
12335;DHT22;6233;51.560;9.986;2022-10-19T07:20:57;9.90;99.90
12335;DHT22;6233;51.560;9.986;2022-10-19T07:23:59;9.90;99.90
12335;DHT22;6233;51.560;9.986;2022-10-19T07:27:01;10.00;99.90
12335;DHT22;6233;51.560;9.986;2022-10-19T07:30:03;10.10;99.90
12335;DHT22;6233;51.560;9.986;2022-10-19T07:33:07;10.10;99.90
12335;DHT22;6233;51.560;9.986;2022-10-19T07:36:10;10.20;99.90
12335;DHT22;6233;51.560;9.986;2022-10-19T07:39:11;10.20;99.90
12335;DHT22;6233;51.560;9.986;2022-10-19T07:42:13;10.30;99.90
12335;DHT22;6233;51.560;9.986;2022-10-19T07:45:15;10.40;99.90
12335;DHT22;6233;51.560;9.986;2022-10-19T07:48:16;10.40;99.90
12335;DHT22;6233;51.560;9.986;2022-10-19T07:51:19;10.40;99.90
12335;DHT22;6233;51.560;9.986;2022-10-19T07:54:21;10.40;99.90
12335;DHT22;6233;51.560;9.986;2022-10-19T07:57:25;10.50;99.90
12335;DHT22;6233;51.560;9.986;2022-10-19T08:00:27;10.60;99.90
12335;DHT22;6233;51.560;9.986;2022-10-19T08:03:28;10.50;99.90
12335;DHT22;6233;51.560;9.986;2022-10-19T08:07:13;10.60;99.90
12335;DHT22;6233;51.560;9.986;2022-10-19T08:10:15;10.70;99.90
12335;DHT22;6233;51.560;9.986;2022-10-19T08:13:16;10.70;99.90
12335;DHT22;6233;51.560;9.986;2022-10-19T08:16:38;10.80;99.90
12335;DHT22;6233;51.560;9.986;2022-10-19T08:19:59;10.80;99.90
12335;DHT22;6233;51.560;9.986;2022-10-19T08:23:01;10.80;99.90
12335;DHT22;6233;51.560;9.986;2022-10-19T08:26:02;10.80;99.90
12335;DHT22;6233;51.560;9.986;2022-10-19T08:29:13;10.90;99.90
12335;DHT22;6233;51.560;9.986;2022-10-19T08:32:15;10.90;99.90
12335;DHT22;6233;51.560;9.986;2022-10-19T08:35:17;10.80;99.90
12335;DHT22;6233;51.560;9.986;2022-10-19T08:38:19;10.90;99.90
12335;DHT22;6233;51.560;9.986;2022-10-19T08:44:56;10.90;99.90
12335;DHT22;6233;51.560;9.986;2022-10-19T08:48:20;11.00;99.90
12335;DHT22;6233;51.560;9.986;2022-10-19T08:51:22;11.00;99.90
12335;DHT22;6233;51.560;9.986;2022-10-19T08:54:33;11.10;99.90
12335;DHT22;6233;51.560;9.986;2022-10-19T09:04:49;11.20;99.90
12335;DHT22;6233;51.560;9.986;2022-10-19T09:07:53;11.30;99.90
12335;DHT22;6233;51.560;9.986;2022-10-19T09:10:55;11.30;99.90
12335;DHT22;6233;51.560;9.986;2022-10-19T09:14:05;11.30;99.90
12335;DHT22;6233;51.560;9.986;2022-10-19T09:17:14;11.40;99.90
12335;DHT22;6233;51.560;9.986;2022-10-19T09:20:25;11.40;99.90
12335;DHT22;6233;51.560;9.986;2022-10-19T09:23:37;11.50;99.90
12335;DHT22;6233;51.560;9.986;2022-10-19T09:26:50;11.50;99.90
12335;DHT22;6233;51.560;9.986;2022-10-19T09:30:04;11.60;99.90
12335;DHT22;6233;51.560;9.986;2022-10-19T09:33:15;11.60;99.90
12335;DHT22;6233;51.560;9.986;2022-10-19T09:36:19;11.70;99.90
12335;DHT22;6233;51.560;9.986;2022-10-19T09:39:39;11.80;99.90
12335;DHT22;6233;51.560;9.986;2022-10-19T09:42:53;11.80;99.90
12335;DHT22;6233;51.560;9.986;2022-10-19T09:49:41;11.90;99.90
12335;DHT22;6233;51.560;9.986;2022-10-19T09:52:48;12.10;99.90
12335;DHT22;6233;51.560;9.986;2022-10-19T09:56:05;12.20;99.90
12335;DHT22;6233;51.560;9.986;2022-10-19T09:59:20;12.20;99.90
12335;DHT22;6233;51.560;9.986;2022-10-19T10:02:30;12.30;99.90
12335;DHT22;6233;51.560;9.986;2022-10-19T10:05:39;12.20;99.90
12335;DHT22;6233;51.560;9.986;2022-10-19T10:08:49;12.20;99.90
12335;DHT22;6233;51.560;9.986;2022-10-19T10:11:56;12.20;99.90
12335;DHT22;6233;51.560;9.986;2022-10-19T10:14:58;12.20;99.90
12335;DHT22;6233;51.560;9.986;2022-10-19T10:18:01;12.20;99.90
12335;DHT22;6233;51.560;9.986;2022-10-19T10:21:20;12.30;99.90
12335;DHT22;6233;51.560;9.986;2022-10-19T10:24:28;12.40;99.90
12335;DHT22;6233;51.560;9.986;2022-10-19T10:27:34;12.20;99.90
12335;DHT22;6233;51.560;9.986;2022-10-19T10:30:36;12.20;99.90
12335;DHT22;6233;51.560;9.986;2022-10-19T10:33:38;12.20;99.90
12335;DHT22;6233;51.560;9.986;2022-10-19T10:36:49;12.10;99.90
12335;DHT22;6233;51.560;9.986;2022-10-19T10:39:53;12.00;99.90
12335;DHT22;6233;51.560;9.986;2022-10-19T10:43:14;12.00;99.90
12335;DHT22;6233;51.560;9.986;2022-10-19T10:46:32;11.90;99.90
12335;DHT22;6233;51.560;9.986;2022-10-19T10:49:35;11.90;99.90
12335;DHT22;6233;51.560;9.986;2022-10-19T10:52:38;11.80;99.90
12335;DHT22;6233;51.560;9.986;2022-10-19T10:55:39;11.90;99.90
12335;DHT22;6233;51.560;9.986;2022-10-19T10:58:56;11.90;99.90
12335;DHT22;6233;51.560;9.986;2022-10-19T11:11:44;12.10;99.90
12335;DHT22;6233;51.560;9.986;2022-10-19T11:14:53;12.10;99.90
12335;DHT22;6233;51.560;9.986;2022-10-19T11:28:02;12.10;99.90
12335;DHT22;6233;51.560;9.986;2022-10-19T11:31:21;12.00;99.90
12335;DHT22;6233;51.560;9.986;2022-10-19T11:41:38;12.40;99.90
12335;DHT22;6233;51.560;9.986;2022-10-19T11:44:48;12.40;99.90
12335;DHT22;6233;51.560;9.986;2022-10-19T11:54:49;12.40;99.90
12335;DHT22;6233;51.560;9.986;2022-10-19T11:58:00;12.40;99.90
12335;DHT22;6233;51.560;9.986;2022-10-19T12:11:40;12.30;99.90
12335;DHT22;6233;51.560;9.986;2022-10-19T12:14:49;12.40;99.90
12335;DHT22;6233;51.560;9.986;2022-10-19T12:17:54;12.40;99.90
12335;DHT22;6233;51.560;9.986;2022-10-19T12:21:01;12.30;99.90
12335;DHT22;6233;51.560;9.986;2022-10-19T12:24:09;12.20;99.90
12335;DHT22;6233;51.560;9.986;2022-10-19T12:27:14;12.20;99.90
12335;DHT22;6233;51.560;9.986;2022-10-19T12:30:22;12.20;99.90
12335;DHT22;6233;51.560;9.986;2022-10-19T12:33:38;12.20;99.90
12335;DHT22;6233;51.560;9.986;2022-10-19T12:37:07;12.30;99.90
12335;DHT22;6233;51.560;9.986;2022-10-19T12:47:18;12.20;99.90
12335;DHT22;6233;51.560;9.986;2022-10-19T12:54:08;12.20;99.90
12335;DHT22;6233;51.560;9.986;2022-10-19T12:57:27;12.30;99.90
12335;DHT22;6233;51.560;9.986;2022-10-19T13:00:32;12.20;99.90
12335;DHT22;6233;51.560;9.986;2022-10-19T13:03:40;12.20;99.90
12335;DHT22;6233;51.560;9.986;2022-10-19T13:10:02;12.10;99.90
12335;DHT22;6233;51.560;9.986;2022-10-19T13:17:01;12.20;99.90
12335;DHT22;6233;51.560;9.986;2022-10-19T13:26:23;12.20;99.90
12335;DHT22;6233;51.560;9.986;2022-10-19T13:32:46;12.10;99.90
12335;DHT22;6233;51.560;9.986;2022-10-19T13:39:03;12.10;99.90
12335;DHT22;6233;51.560;9.986;2022-10-19T13:42:22;12.10;99.90
12335;DHT22;6233;51.560;9.986;2022-10-19T13:45:26;12.00;99.90
12335;DHT22;6233;51.560;9.986;2022-10-19T13:55:30;11.90;99.90
12335;DHT22;6233;51.560;9.986;2022-10-19T14:12:07;11.50;99.90
12335;DHT22;6233;51.560;9.986;2022-10-19T14:15:21;11.40;99.90
12335;DHT22;6233;51.560;9.986;2022-10-19T14:18:27;11.40;99.90
12335;DHT22;6233;51.560;9.986;2022-10-19T14:21:31;11.30;99.90
12335;DHT22;6233;51.560;9.986;2022-10-19T14:24:34;11.30;99.90
12335;DHT22;6233;51.560;9.986;2022-10-19T14:27:39;11.20;99.90
12335;DHT22;6233;51.560;9.986;2022-10-19T14:30:40;11.20;99.90
12335;DHT22;6233;51.560;9.986;2022-10-19T14:33:45;11.20;99.90
12335;DHT22;6233;51.560;9.986;2022-10-19T14:36:48;11.10;99.90
12335;DHT22;6233;51.560;9.986;2022-10-19T14:43:30;11.00;99.90
12335;DHT22;6233;51.560;9.986;2022-10-19T14:46:33;11.10;99.90
12335;DHT22;6233;51.560;9.986;2022-10-19T14:49:35;11.00;99.90
12335;DHT22;6233;51.560;9.986;2022-10-19T14:52:38;11.00;99.90
12335;DHT22;6233;51.560;9.986;2022-10-19T14:55:40;10.90;99.90
12335;DHT22;6233;51.560;9.986;2022-10-19T15:01:54;10.90;99.90
12335;DHT22;6233;51.560;9.986;2022-10-19T15:04:58;10.90;99.90
12335;DHT22;6233;51.560;9.986;2022-10-19T15:11:49;10.90;99.90
12335;DHT22;6233;51.560;9.986;2022-10-19T15:14:51;10.80;99.90
12335;DHT22;6233;51.560;9.986;2022-10-19T15:17:55;10.80;99.90
12335;DHT22;6233;51.560;9.986;2022-10-19T15:21:12;10.80;99.90
12335;DHT22;6233;51.560;9.986;2022-10-19T15:24:26;10.70;99.90
12335;DHT22;6233;51.560;9.986;2022-10-19T15:27:34;10.70;99.90
12335;DHT22;6233;51.560;9.986;2022-10-19T15:30:37;10.60;99.90
12335;DHT22;6233;51.560;9.986;2022-10-19T15:33:42;10.60;99.90
12335;DHT22;6233;51.560;9.986;2022-10-19T15:36:58;10.50;99.90
12335;DHT22;6233;51.560;9.986;2022-10-19T15:40:32;10.50;99.90
12335;DHT22;6233;51.560;9.986;2022-10-19T15:43:42;10.50;99.90
12335;DHT22;6233;51.560;9.986;2022-10-19T15:52:58;10.30;99.90
12335;DHT22;6233;51.560;9.986;2022-10-19T15:55:59;10.20;99.90
12335;DHT22;6233;51.560;9.986;2022-10-19T15:59:04;10.20;99.90
12335;DHT22;6233;51.560;9.986;2022-10-19T16:02:12;10.10;99.90
12335;DHT22;6233;51.560;9.986;2022-10-19T16:05:14;10.00;99.90
12335;DHT22;6233;51.560;9.986;2022-10-19T16:08:15;10.00;99.90
12335;DHT22;6233;51.560;9.986;2022-10-19T16:11:19;10.00;99.90
12335;DHT22;6233;51.560;9.986;2022-10-19T16:14:22;9.90;99.90
12335;DHT22;6233;51.560;9.986;2022-10-19T16:17:24;9.90;99.90
12335;DHT22;6233;51.560;9.986;2022-10-19T16:20:27;9.80;99.90
12335;DHT22;6233;51.560;9.986;2022-10-19T16:23:29;9.80;99.90
12335;DHT22;6233;51.560;9.986;2022-10-19T16:26:39;9.70;99.90
12335;DHT22;6233;51.560;9.986;2022-10-19T16:29:42;9.70;99.90
12335;DHT22;6233;51.560;9.986;2022-10-19T16:32:47;9.60;99.90
12335;DHT22;6233;51.560;9.986;2022-10-19T16:35:50;9.50;99.90
12335;DHT22;6233;51.560;9.986;2022-10-19T16:38:51;9.50;99.90
12335;DHT22;6233;51.560;9.986;2022-10-19T16:41:53;9.50;99.90
12335;DHT22;6233;51.560;9.986;2022-10-19T16:44:54;9.30;99.90
12335;DHT22;6233;51.560;9.986;2022-10-19T16:47:56;9.30;99.90
12335;DHT22;6233;51.560;9.986;2022-10-19T16:51:23;9.20;99.90
12335;DHT22;6233;51.560;9.986;2022-10-19T16:54:25;9.20;99.90
12335;DHT22;6233;51.560;9.986;2022-10-19T16:57:27;9.10;99.90
12335;DHT22;6233;51.560;9.986;2022-10-19T17:00:29;9.10;99.90
12335;DHT22;6233;51.560;9.986;2022-10-19T17:03:30;9.10;99.90
12335;DHT22;6233;51.560;9.986;2022-10-19T17:06:36;9.10;99.90
12335;DHT22;6233;51.560;9.986;2022-10-19T17:09:39;9.00;99.90
12335;DHT22;6233;51.560;9.986;2022-10-19T17:12:46;9.00;99.90
12335;DHT22;6233;51.560;9.986;2022-10-19T17:15:47;9.00;99.90
12335;DHT22;6233;51.560;9.986;2022-10-19T17:18:49;9.00;99.90
12335;DHT22;6233;51.560;9.986;2022-10-19T17:21:55;8.90;99.90
12335;DHT22;6233;51.560;9.986;2022-10-19T17:24:57;8.90;99.90
12335;DHT22;6233;51.560;9.986;2022-10-19T17:27:59;8.90;99.90
12335;DHT22;6233;51.560;9.986;2022-10-19T17:31:10;8.90;99.90
12335;DHT22;6233;51.560;9.986;2022-10-19T17:34:12;8.80;99.90
12335;DHT22;6233;51.560;9.986;2022-10-19T17:37:14;8.70;99.90
12335;DHT22;6233;51.560;9.986;2022-10-19T17:40:19;8.70;99.90
12335;DHT22;6233;51.560;9.986;2022-10-19T17:43:20;8.80;99.90
12335;DHT22;6233;51.560;9.986;2022-10-19T17:46:25;8.70;99.90
12335;DHT22;6233;51.560;9.986;2022-10-19T17:49:27;8.60;99.90
12335;DHT22;6233;51.560;9.986;2022-10-19T17:52:30;8.40;99.90
12335;DHT22;6233;51.560;9.986;2022-10-19T17:55:35;8.60;99.90
12335;DHT22;6233;51.560;9.986;2022-10-19T17:58:37;8.40;99.90
12335;DHT22;6233;51.560;9.986;2022-10-19T18:01:40;8.60;99.90
12335;DHT22;6233;51.560;9.986;2022-10-19T18:04:42;8.70;99.90
12335;DHT22;6233;51.560;9.986;2022-10-19T18:07:47;8.50;99.90
12335;DHT22;6233;51.560;9.986;2022-10-19T18:10:57;8.50;99.90
12335;DHT22;6233;51.560;9.986;2022-10-19T18:14:02;8.40;99.90
12335;DHT22;6233;51.560;9.986;2022-10-19T18:17:07;8.50;99.90
12335;DHT22;6233;51.560;9.986;2022-10-19T18:20:09;8.50;99.90
12335;DHT22;6233;51.560;9.986;2022-10-19T18:23:11;8.50;99.90
12335;DHT22;6233;51.560;9.986;2022-10-19T18:26:19;8.40;99.90
12335;DHT22;6233;51.560;9.986;2022-10-19T18:29:31;8.40;99.90
12335;DHT22;6233;51.560;9.986;2022-10-19T18:32:33;8.30;99.90
12335;DHT22;6233;51.560;9.986;2022-10-19T18:35:39;8.30;99.90
12335;DHT22;6233;51.560;9.986;2022-10-19T18:38:40;8.20;99.90
12335;DHT22;6233;51.560;9.986;2022-10-19T18:41:42;8.20;99.90
12335;DHT22;6233;51.560;9.986;2022-10-19T18:44:46;8.20;99.90
12335;DHT22;6233;51.560;9.986;2022-10-19T18:47:48;8.20;99.90
12335;DHT22;6233;51.560;9.986;2022-10-19T18:50:49;8.20;99.90
12335;DHT22;6233;51.560;9.986;2022-10-19T18:53:51;8.20;99.90
12335;DHT22;6233;51.560;9.986;2022-10-19T18:56:53;8.20;99.90
12335;DHT22;6233;51.560;9.986;2022-10-19T18:59:55;8.20;99.90
12335;DHT22;6233;51.560;9.986;2022-10-19T19:02:57;8.10;99.90
12335;DHT22;6233;51.560;9.986;2022-10-19T19:06:04;8.10;99.90
12335;DHT22;6233;51.560;9.986;2022-10-19T19:09:17;8.10;99.90
12335;DHT22;6233;51.560;9.986;2022-10-19T19:12:20;8.00;99.90
12335;DHT22;6233;51.560;9.986;2022-10-19T19:15:22;8.00;99.90
12335;DHT22;6233;51.560;9.986;2022-10-19T19:18:24;8.00;99.90
12335;DHT22;6233;51.560;9.986;2022-10-19T19:21:28;7.90;99.90
12335;DHT22;6233;51.560;9.986;2022-10-19T19:24:30;7.90;99.90
12335;DHT22;6233;51.560;9.986;2022-10-19T19:27:33;7.80;99.90
12335;DHT22;6233;51.560;9.986;2022-10-19T19:30:43;7.80;99.90
12335;DHT22;6233;51.560;9.986;2022-10-19T19:33:47;7.80;99.90
12335;DHT22;6233;51.560;9.986;2022-10-19T19:36:49;7.80;99.90
12335;DHT22;6233;51.560;9.986;2022-10-19T19:39:51;7.80;99.90
12335;DHT22;6233;51.560;9.986;2022-10-19T19:42:52;8.20;99.90
12335;DHT22;6233;51.560;9.986;2022-10-19T19:45:56;7.80;99.90
12335;DHT22;6233;51.560;9.986;2022-10-19T19:48:59;7.80;99.90
12335;DHT22;6233;51.560;9.986;2022-10-19T19:52:03;7.80;99.90
12335;DHT22;6233;51.560;9.986;2022-10-19T19:55:05;7.80;99.90
12335;DHT22;6233;51.560;9.986;2022-10-19T19:58:14;7.80;99.90
12335;DHT22;6233;51.560;9.986;2022-10-19T20:01:18;7.80;99.90
12335;DHT22;6233;51.560;9.986;2022-10-19T20:04:20;7.80;99.90
12335;DHT22;6233;51.560;9.986;2022-10-19T20:07:22;7.80;99.90
12335;DHT22;6233;51.560;9.986;2022-10-19T20:10:24;7.80;99.90
12335;DHT22;6233;51.560;9.986;2022-10-19T20:13:25;7.80;99.90
12335;DHT22;6233;51.560;9.986;2022-10-19T20:16:28;7.80;99.90
12335;DHT22;6233;51.560;9.986;2022-10-19T20:19:33;7.80;99.90
12335;DHT22;6233;51.560;9.986;2022-10-19T20:22:35;7.70;99.90
12335;DHT22;6233;51.560;9.986;2022-10-19T20:25:37;7.70;99.90
12335;DHT22;6233;51.560;9.986;2022-10-19T20:28:38;7.70;99.90
12335;DHT22;6233;51.560;9.986;2022-10-19T20:31:40;7.60;99.90
12335;DHT22;6233;51.560;9.986;2022-10-19T20:34:42;7.60;99.90
12335;DHT22;6233;51.560;9.986;2022-10-19T20:37:47;7.60;99.90
12335;DHT22;6233;51.560;9.986;2022-10-19T20:40:49;7.60;99.90
12335;DHT22;6233;51.560;9.986;2022-10-19T20:43:52;7.60;99.90
12335;DHT22;6233;51.560;9.986;2022-10-19T20:46:54;7.60;99.90
12335;DHT22;6233;51.560;9.986;2022-10-19T20:49:55;7.50;99.90
12335;DHT22;6233;51.560;9.986;2022-10-19T20:52:57;7.50;99.90
12335;DHT22;6233;51.560;9.986;2022-10-19T20:56:06;7.50;99.90
12335;DHT22;6233;51.560;9.986;2022-10-19T20:59:14;7.40;99.90
12335;DHT22;6233;51.560;9.986;2022-10-19T21:02:16;7.50;99.90
12335;DHT22;6233;51.560;9.986;2022-10-19T21:05:17;7.50;99.90
12335;DHT22;6233;51.560;9.986;2022-10-19T21:08:19;7.50;99.90
12335;DHT22;6233;51.560;9.986;2022-10-19T21:11:23;7.50;99.90
12335;DHT22;6233;51.560;9.986;2022-10-19T21:14:28;7.50;99.90
12335;DHT22;6233;51.560;9.986;2022-10-19T21:17:30;7.50;99.90
12335;DHT22;6233;51.560;9.986;2022-10-19T21:20:37;7.50;99.90
12335;DHT22;6233;51.560;9.986;2022-10-19T21:23:39;7.40;99.90
12335;DHT22;6233;51.560;9.986;2022-10-19T21:26:41;7.40;99.90
12335;DHT22;6233;51.560;9.986;2022-10-19T21:29:43;7.40;99.90
12335;DHT22;6233;51.560;9.986;2022-10-19T21:32:46;7.50;99.90
12335;DHT22;6233;51.560;9.986;2022-10-19T21:35:48;7.50;99.90
12335;DHT22;6233;51.560;9.986;2022-10-19T21:38:50;7.50;99.90
12335;DHT22;6233;51.560;9.986;2022-10-19T21:41:52;7.50;99.90
12335;DHT22;6233;51.560;9.986;2022-10-19T21:44:59;7.50;99.90
12335;DHT22;6233;51.560;9.986;2022-10-19T21:48:22;7.30;99.90
12335;DHT22;6233;51.560;9.986;2022-10-19T21:54:32;7.50;99.90
12335;DHT22;6233;51.560;9.986;2022-10-19T21:57:33;7.40;99.90
12335;DHT22;6233;51.560;9.986;2022-10-19T22:00:35;7.50;99.90
12335;DHT22;6233;51.560;9.986;2022-10-19T22:03:37;7.50;99.90
12335;DHT22;6233;51.560;9.986;2022-10-19T22:06:39;7.50;99.90
12335;DHT22;6233;51.560;9.986;2022-10-19T22:09:41;7.40;99.90
12335;DHT22;6233;51.560;9.986;2022-10-19T22:12:43;7.40;99.90
12335;DHT22;6233;51.560;9.986;2022-10-19T22:15:47;7.30;99.90
12335;DHT22;6233;51.560;9.986;2022-10-19T22:18:49;7.60;99.90
12335;DHT22;6233;51.560;9.986;2022-10-19T22:21:50;7.30;99.90
12335;DHT22;6233;51.560;9.986;2022-10-19T22:24:52;7.20;99.90
12335;DHT22;6233;51.560;9.986;2022-10-19T22:27:54;7.20;99.90
12335;DHT22;6233;51.560;9.986;2022-10-19T22:30:57;7.20;99.90